Slayton, MN

8:40 PM CDT on March 22, 2017 (GMT -0500)
Slayton

Weather History for KDVP - May, 2013

Change the Weather History Date:

Thursday, May 16, 2013

  Actual Average (KOTG) Record (KOTG)
Temperature  
Mean Temperature 65 °F -  
Max Temperature 83 °F 64 °F 87 °F (1987)
Min Temperature 48 °F 44 °F 28 °F (2014)
Growing Degree Days 15 (Base 50)    
Moisture  
Dew Point 42 °F    
Average Humidity 48    
Maximum Humidity 91    
Minimum Humidity 16    
Precipitation  
Precipitation 0.08 in - - ()
Sea Level Pressure  
Sea Level Pressure 29.89 in    
Wind  
Wind Speed 4 mph (SE)    
Max Wind Speed 21 mph    
Max Gust Speed 29 mph    
Visibility 10 miles    
Events Rain , Thunderstorm    
Averages and records for this station are not official NWS values.
T = Trace of Precipitation, MM = Missing Value Source: NWS Daily Summary

Daily Weather History Graph

Daily Weather History Graph

Search for Another Location

Airport or City:

Trip Planner

Search our weather history database for the weather conditions in past years. The results will help you decide how hot, cold, wet, or windy it might be!

Date:

Astronomy

May. 16, 2013 Rise Set
Actual Time 5:55 AM CDT 8:43 PM CDT
Civil Twilight 5:22 AM CDT 9:17 PM CDT
Nautical Twilight 4:39 AM CDT 10:00 PM CDT
Astronomical Twilight 3:50 AM CDT 10:49 PM CDT
Moon 11:33 AM CDT (5/16) 1:01 AM CDT (5/16)
Length of Visible Light 15h 55m
Length of Day
14h 48m
Waxing Crescent, 36% of the Moon is Illuminated
May 16
Waxing Crescent
May 17
First Quarter
May 24
Full
May 31
Last Quarter
Jun 8
New

Hourly Weather History & Observations

Time (CDT) Temp. Dew Point Humidity Pressure Visibility Wind Dir Wind Speed Gust Speed Precip Events Conditions
12:13 AM 57.0 °F 39.9 °F 53% 29.92 in 10.0 mi Calm Calm - N/A   Clear
12:34 AM 56.7 °F 39.9 °F 54% 29.93 in 10.0 mi Calm Calm - N/A   Clear
12:53 AM 55.8 °F 40.1 °F 56% 29.93 in 10.0 mi Calm Calm - N/A   Clear
1:13 AM 54.0 °F 39.9 °F 59% 29.93 in 10.0 mi Calm Calm - N/A   Clear
1:33 AM 54.5 °F 39.2 °F 56% 29.93 in 10.0 mi WSW 4.6 mph - N/A   Clear
1:53 AM 51.8 °F 39.6 °F 63% 29.93 in 10.0 mi SSE 6.9 mph - N/A   Clear
2:13 AM 53.1 °F 39.4 °F 60% 29.92 in 10.0 mi South 8.1 mph - N/A   Scattered Clouds
2:34 AM 53.6 °F 39.9 °F 60% 29.92 in 10.0 mi SSW 3.5 mph - N/A   Clear
2:53 AM 53.6 °F 40.1 °F 60% 29.92 in 10.0 mi SSW 9.2 mph - N/A   Clear
3:13 AM 54.7 °F 39.4 °F 56% 29.92 in 10.0 mi SSW 5.8 mph - N/A   Clear
3:34 AM 55.2 °F 39.4 °F 55% 29.91 in 10.0 mi SW 4.6 mph - N/A   Clear
3:53 AM 55.2 °F 39.0 °F 54% 29.91 in 10.0 mi Calm Calm - N/A   Clear
4:13 AM 54.7 °F 39.2 °F 56% 29.92 in 10.0 mi Calm Calm - N/A   Clear
4:33 AM 52.7 °F 38.8 °F 59% 29.91 in 10.0 mi Calm Calm - N/A   Clear
4:54 AM 50.9 °F 39.2 °F 64% 29.92 in 10.0 mi Calm Calm - N/A   Clear
5:13 AM 51.3 °F 39.2 °F 63% 29.92 in 10.0 mi Calm Calm - N/A   Clear
5:34 AM 50.9 °F 38.7 °F 63% 29.92 in 10.0 mi Calm Calm - N/A   Clear
5:53 AM 50.7 °F 39.2 °F 65% 29.92 in 10.0 mi Calm Calm - N/A   Clear
6:14 AM 48.4 °F 39.2 °F 71% 29.93 in 10.0 mi Calm Calm - N/A   Clear
6:33 AM 50.0 °F 39.0 °F 66% 29.93 in 10.0 mi WNW 4.6 mph - N/A   Clear
6:53 AM 51.4 °F 41.9 °F 70% 29.94 in 10.0 mi West 3.5 mph - N/A   Clear
7:13 AM 55.0 °F 43.9 °F 66% 29.94 in 7.0 mi Calm Calm - N/A   Clear
7:34 AM 60.3 °F 44.6 °F 56% 29.94 in 10.0 mi Calm Calm - N/A   Clear
7:53 AM 63.9 °F 44.6 °F 50% 29.93 in 10.0 mi Calm Calm - N/A   Clear
8:14 AM 66.9 °F 43.5 °F 43% 29.94 in 10.0 mi Calm Calm - N/A   Clear
8:33 AM 69.3 °F 41.0 °F 36% 29.93 in 10.0 mi Calm Calm - N/A   Clear
8:53 AM 70.5 °F 39.4 °F 32% 29.94 in 10.0 mi ENE 3.5 mph - N/A   Clear
9:14 AM 71.1 °F 39.2 °F 31% 29.93 in 10.0 mi Calm Calm - N/A   Clear
9:33 AM 73.0 °F 39.6 °F 30% 29.93 in 10.0 mi NE 4.6 mph - N/A   Clear
9:53 AM 74.3 °F 38.7 °F 28% 29.92 in 10.0 mi East 5.8 mph - N/A   Clear
10:14 AM 75.2 °F 37.8 °F 26% 29.92 in 10.0 mi ESE 8.1 mph - N/A   Clear
10:33 AM 75.7 °F 37.8 °F 25% 29.91 in 10.0 mi ESE 8.1 mph - N/A   Clear
10:54 AM 77.2 °F 37.0 °F 23% 29.91 in 10.0 mi ESE 12.7 mph 16.1 mph N/A   Clear
11:13 AM 77.7 °F 34.9 °F 21% 29.91 in 10.0 mi SE 11.5 mph - N/A   Clear
11:32 AM 78.8 °F 36.0 °F 21% 29.90 in 10.0 mi ESE 6.9 mph 17.3 mph N/A   Clear
11:53 AM 79.3 °F 34.7 °F 20% 29.90 in 10.0 mi ESE 6.9 mph 18.4 mph N/A   Clear
12:13 PM 79.9 °F 33.6 °F 19% 29.89 in 10.0 mi SE 15.0 mph 19.6 mph N/A   Clear
12:34 PM 80.8 °F 34.5 °F 19% 29.89 in 10.0 mi ESE 12.7 mph 20.7 mph N/A   Clear
12:53 PM 81.7 °F 34.2 °F 18% 29.88 in 10.0 mi East 13.8 mph 18.4 mph N/A   Clear
1:14 PM 81.9 °F 35.8 °F 19% 29.88 in 10.0 mi ESE 10.4 mph 20.7 mph N/A   Clear
1:33 PM 82.0 °F 36.5 °F 20% 29.87 in 10.0 mi ESE 13.8 mph 20.7 mph N/A   Clear
1:52 PM 82.6 °F 35.2 °F 18% 29.87 in 10.0 mi East 12.7 mph 23.0 mph N/A   Clear
2:14 PM 82.2 °F 34.2 °F 18% 29.86 in 10.0 mi ESE 11.5 mph - N/A   Clear
2:33 PM 82.9 °F 33.3 °F 17% 29.87 in 10.0 mi East 11.5 mph 23.0 mph N/A   Clear
2:54 PM 82.4 °F 32.4 °F 16% 29.87 in 10.0 mi ESE 12.7 mph 19.6 mph N/A   Clear
3:13 PM 82.2 °F 32.4 °F 17% 29.87 in 10.0 mi SE 15.0 mph 20.7 mph N/A   Scattered Clouds
3:33 PM 81.9 °F 31.8 °F 16% 29.86 in 10.0 mi SSE 15.0 mph 18.4 mph N/A   Scattered Clouds
3:53 PM 81.9 °F 31.3 °F 16% 29.86 in 10.0 mi ESE 8.1 mph - N/A   Mostly Cloudy
4:15 PM 81.7 °F 30.6 °F 16% 29.85 in 10.0 mi SE 6.9 mph - N/A   Scattered Clouds
4:33 PM 81.5 °F 31.1 °F 16% 29.85 in 10.0 mi ESE 9.2 mph - N/A   Clear
5:12 PM 80.8 °F 32.0 °F 17% 29.84 in 10.0 mi SSE 9.2 mph - N/A   Clear
5:33 PM 79.7 °F 34.0 °F 19% 29.83 in 10.0 mi SSE 9.2 mph - N/A   Scattered Clouds
5:53 PM 78.6 °F 35.6 °F 21% 29.83 in 10.0 mi SSE 6.9 mph - N/A   Mostly Cloudy
6:13 PM 77.4 °F 36.9 °F 23% 29.83 in 10.0 mi South 5.8 mph - N/A   Overcast
6:34 PM 77.0 °F 36.3 °F 23% 29.84 in 10.0 mi SSW 20.7 mph 28.8 mph N/A Rain Light Rain
6:53 PM 67.1 °F 50.5 °F 55% 29.86 in 10.0 mi West 11.5 mph 21.9 mph N/A Rain Light Rain
7:13 PM 64.4 °F 54.7 °F 71% 29.86 in 10.0 mi WNW 8.1 mph - N/A Rain Light Rain
7:33 PM 63.3 °F 56.7 °F 79% 29.86 in 10.0 mi NW 9.2 mph - N/A Rain Light Rain
7:53 PM 62.8 °F 56.5 °F 80% 29.87 in 10.0 mi Calm Calm - 0.01 in Rain Light Rain
8:13 PM 63.5 °F 56.8 °F 79% 29.86 in 10.0 mi Calm Calm - N/A Rain Light Rain
8:33 PM 62.8 °F 57.9 °F 84% 29.85 in 10.0 mi ENE 4.6 mph - N/A Rain Light Rain
8:53 PM 64.0 °F 55.6 °F 74% 29.85 in 10.0 mi East 6.9 mph - N/A   Overcast
9:13 PM 64.4 °F 55.0 °F 72% 29.86 in 10.0 mi SE 3.5 mph - N/A   Overcast
9:34 PM 63.0 °F 58.6 °F 86% 29.87 in 10.0 mi SW 3.5 mph - N/A Rain Light Rain
9:53 PM 62.1 °F 58.1 °F 87% 29.88 in 10.0 mi West 6.9 mph - N/A Rain Light Rain
10:13 PM 61.9 °F 57.2 °F 85% 29.88 in 10.0 mi NE 4.6 mph - 0.01 in Rain Light Rain
10:33 PM 63.0 °F 55.6 °F 77% 29.88 in 10.0 mi North 5.8 mph - 0.01 in   Overcast
10:52 PM 62.6 °F 55.8 °F 78% 29.89 in 10.0 mi South 4.6 mph - 0.01 in   Light Drizzle
11:13 PM 61.3 °F 57.2 °F 86% 29.90 in 7.0 mi ESE 3.5 mph - 0.01 in Rain Light Rain
11:33 PM 61.7 °F 56.7 °F 84% 29.90 in 10.0 mi Calm Calm - 0.04 in Rain Light Rain
11:53 PM 60.6 °F 58.1 °F 91% 29.90 in 7.0 mi Calm Calm - 0.06 in Rain , Thunderstorm Rain